Logo AVAMET
Benvolgut visitant, si us plau, ingressa Recuperar contrasenya

Alacant el Rebolledo CETRA

Dades diàries. Acumulats / Últims 30 dies disponibles

Data Temperatura (°C) Humitat rel. (%) Pressió rel. (hPa) Vent (km/h) Precipitació
Mínima Mitjana Màxima Amplitud
tèrmica
Mínima Mitjana Màxima Mínima Mitjana Màxima Predom. Mitjana Ràfega
màxima
Total
(mm)
Índex-n
Mínima Mitjana Màxima Mínima Mitjana Màxima n
0 a 1
P0 max
mm 5'
Dades mensuals acumulades fins l'últim dia disponible
01/2020 2,4 7,0 10,6 11,3 12,7 15,5 19,6 17,2 29 66 92 1.009 1.023 1.032   5,4 74,0 46,8
Dades anuals acumulades fins l'últim dia disponible
2020 2,4 7,0 10,6 11,3 12,7 15,5 19,6 17,2 29 66 92 1.009 1.023 1.032   5,4 74,0 46,8
Últims 30 dies disponibles
28-01-2020 10,6     14,7     19,3 8,7 48 56 65 1.020 1.021 1.022 W 6,9 40,2 0,0
27-01-2020 8,9     12,9     16,9 8,0 38 51 61 1.020 1.022 1.024 W 8,9 29,0 0,0
26-01-2020 7,8     12,7     16,8 9,0 39 62 86 1.017 1.019 1.023 W 6,6 37,0 0,0
25-01-2020 9,7     11,9     15,7 6,0 55 76 83 1.015 1.017 1.019 W 2,6 25,7 0,0
24-01-2020 8,3     11,7     14,6 6,3 68 74 84 1.018 1.019 1.021 NE 4,0 24,1 0,0
23-01-2020 7,7     10,8     12,7 5,0 69 79 86 1.017 1.018 1.020 E 4,5 20,9 0,8
22-01-2020 8,0     11,7     15,7 7,7 57 72 88 1.014 1.015 1.017 NE 6,8 25,7 0,0
21-01-2020 8,3     11,3     14,8 6,5 66 80 90 1.009 1.011 1.016 E 11,1 43,5 20,6 0,51 1,40
20-01-2020 6,6     8,8     12,9 6,3 58 72 86 1.010 1.014 1.015 NE 13,5 74,0 23,6 0,69 3,40
19-01-2020 7,2     10,7     13,9 6,7 48 58 69 1.010 1.013 1.018 NE 12,7 59,5 1,2 0,37 0,40
18-01-2020 10,4     13,1     15,7 5,3 43 54 68 1.018 1.026 1.030 W 4,3 27,4 0,0
17-01-2020 9,1     14,2     19,6 10,5 35 46 67 1.025 1.027 1.030 W 6,4 35,4 0,0
16-01-2020 8,7     13,2     17,2 8,5 48 57 70 1.025 1.025 1.027 E 3,1 20,9 0,0
15-01-2020 8,9     13,0     17,1 8,2 37 48 59 1.021 1.023 1.026 W 6,0 35,4 0,0
14-01-2020 6,8     11,6     15,9 9,1 29 47 70 1.019 1.020 1.021 W 6,4 29,0 0,0
13-01-2020 2,4     8,6     14,5 12,1 39 60 81 1.021 1.024 1.028 W 6,0 27,4 0,0
12-01-2020 3,7     9,4     13,7 10,0 37 63 84 1.026 1.028 1.029 E 4,5 19,3 0,0
11-01-2020 7,0     11,7     15,9 8,9 41 57 77 1.025 1.027 1.029 NE 5,3 25,7 0,0
10-01-2020 6,6     11,3     16,1 9,5 37 62 80 1.020 1.022 1.026 NE 7,1 35,4 0,0
09-01-2020 6,8     11,1     16,1 9,3 54 73 88 1.023 1.026 1.028 W 3,1 16,1 0,0
08-01-2020 5,8     10,4     14,0 8,2 66 78 89 1.025 1.027 1.029 E 2,9 22,5 0,0
07-01-2020 6,4     10,6     15,3 8,9 64 81 91 1.027 1.028 1.030 SW 1,8 12,9 0,2
06-01-2020 5,9     10,4     14,8 8,9 51 67 79 1.026 1.027 1.028 SW 2,3 16,1 0,0
05-01-2020 5,3     10,9     16,6 11,3 43 68 86 1.025 1.027 1.030 WNW 2,9 16,1 0,0
04-01-2020 5,3     10,1     15,5 10,2 62 79 88 1.029 1.030 1.032 W 2,4 14,5 0,0
03-01-2020 3,7     9,6     14,6 10,9 62 79 92 1.027 1.029 1.030 NE 2,9 17,7 0,2
02-01-2020 5,2     9,9     13,1 7,9 67 78 86 1.029 1.030 1.032 W 3,4 17,7 0,0
01-01-2020 4,7     9,8     15,4 10,7 63 79 88 1.029 1.030 1.031 SW 2,7 14,5 0,2
31-12-2019 5,7     10,6     15,3 9,6 55 74 86 1.029 1.030 1.032 O 2,2 16,1 0,0
30-12-2019 6,9     11,3     16,4 9,5 48 75 90 1.029 1.030 1.032 W 1,1 11,3 0,0
Últims 13 mesos disponibles
12/2019 5,7 10,6 15,2 14,2 13,4 18,1 23,8 18,1 38 61 87 1.003 1.017 1.030 W 6,6 93,3 48,8
11/2019 6,9 11,7 19,7 15,3 13,4 19,2 27,2 20,3 37 51 82 998 1.009 1.017 W 10,2 83,7 24,4
10/2019 10,5 15,8 20,2 20,1 15,6 24,9 31,7 21,2 40 63 81 1.007 1.015 1.020 W 4,8 74,0 45,4
09/2019 14,9 19,5 23,1 23,4 22,0 27,9 32,9 18,0 51 71 86 1.008 1.015 1.020 E 5,3 59,5 138,6
08/2019 18,0 21,9 25,7 26,3 27,2 31,3 39,6 21,6 35 65 77 1.008 1.013 1.017 E 5,2 43,5 93,8
07/2019 20,2 22,6 25,4 27,0 28,0 31,6 36,1 15,9 32 56 75 1.004 1.011 1.018 E 7,2 48,3 0,0
06/2019 14,2 18,2 24,0 23,2 23,3 28,1 34,6 20,4 38 57 77 1.007 1.013 1.020 E 6,3 54,7 0,4
05/2019 11,9 14,3 18,9 19,0 20,0 24,0 30,3 18,4 47 63 80 1.007 1.014 1.023 SSE 5,4 41,8 1,8
04/2019 6,7 11,6 15,1 15,5 14,3 20,1 28,6 21,9 38 64 89 998 1.009 1.016 W 7,3 75,6 184,8
03/2019 7,4 10,2 13,4 14,8 13,3 19,7 27,8 20,4 26 53 86 1.011 1.021 1.028 E 5,7 62,8 14,0
Tots els anys disponibles
Temperatura (°C)
Humitat relativa (%)
Velocitat del vent i ràfega màxima (km/h)
Direcció del vent (°)
Pressió (hPa)
Precipitació (mm)
Nota sobre les dades: s'avisa a l'usuari de la provisionalitat i no oficialitat d'aquestes dades
Logo AVAMET blanc
Web allotjada a Sollutia
Llicència de Creative CommonsLa web d'AVAMET i els seus continguts estan subjectes a una llicència de
Reconeixement - No Comercial - Compartir igual
Últimes estacions: Xixona - Els Ameradors (Soci), Agres - El Tossal (Soci), Xàbia - Bevenguts (MeteoXàbia), Llíria (Aj. Soci/Inforatge), Orihuela - Lo Capitán, Cox & Guardamar del Segura - horta (Meteorihuela), l'Alcúdia - Carriona & el Real de Gandia (Inforatge), Benicàssim - les Vil·les (Soci),  l'Alfàs del Pi - l'Albir (Soci), - - -